createdAt,value
2023-04-12T00:00:29.120Z,101004.53
2023-04-12T00:01:30.651Z,101002.69
2023-04-12T00:02:35.622Z,101008.13
2023-04-12T00:03:37.437Z,101008.13
2023-04-12T00:04:42.106Z,101002.78
2023-04-12T00:05:46.907Z,101008.97
2023-04-12T00:06:48.608Z,101007.16
2023-04-12T00:07:53.091Z,101005.25
2023-04-12T00:08:54.895Z,101004.41
2023-04-12T00:09:56.482Z,101001.59
2023-04-12T00:10:57.911Z,101004.97
2023-04-12T00:11:59.862Z,100998.88
2023-04-12T00:13:01.294Z,101000.69
2023-04-12T00:14:02.700Z,101001.72
2023-04-12T00:15:06.159Z,100999.78
2023-04-12T00:16:09.576Z,100989.06
2023-04-12T00:17:11.864Z,100989.97
2023-04-12T00:18:13.454Z,100984.53
2023-04-12T00:19:16.941Z,100990.66
2023-04-12T00:20:18.431Z,100988.81
2023-04-12T00:21:19.945Z,100985.28
2023-04-12T00:22:21.381Z,100987.97
2023-04-12T00:23:22.858Z,100986.91
2023-04-12T00:24:26.131Z,100989.69
2023-04-12T00:25:27.616Z,100992.47
2023-04-12T00:26:29.045Z,100993.31
2023-04-12T00:27:30.493Z,100988.75
2023-04-12T00:28:32.003Z,100991.44
2023-04-12T00:29:33.954Z,100990.63
2023-04-12T00:30:35.838Z,100993.25
2023-04-12T00:31:37.325Z,100992.34
2023-04-12T00:32:38.910Z,100988.69
2023-04-12T00:33:40.496Z,100990.41
2023-04-12T00:34:41.904Z,100985.09
2023-04-12T00:35:43.331Z,100989.91
2023-04-12T00:36:44.867Z,100996.00
2023-04-12T00:37:46.346Z,100987.78
2023-04-12T00:38:48.022Z,100990.22
2023-04-12T00:39:49.791Z,100989.41
2023-04-12T00:40:51.284Z,100985.72
2023-04-12T00:41:52.797Z,100978.63
2023-04-12T00:42:54.236Z,100988.88
2023-04-12T00:43:55.844Z,100985.22
2023-04-12T00:44:57.603Z,100988.63
2023-04-12T00:45:59.559Z,100999.31
2023-04-12T00:47:03.833Z,100986.81
2023-04-12T00:48:06.189Z,101001.94
2023-04-12T00:49:07.621Z,100997.34
2023-04-12T00:50:10.733Z,100995.56
2023-04-12T00:51:12.129Z,100992.22
2023-04-12T00:52:15.601Z,100997.41
2023-04-12T00:53:18.372Z,100998.44
2023-04-12T00:54:20.280Z,100990.34
2023-04-12T00:55:21.877Z,100990.34
2023-04-12T00:56:27.402Z,100990.41
2023-04-12T00:57:34.293Z,100990.41
2023-04-12T00:58:36.093Z,100984.00
2023-04-12T00:59:37.489Z,100992.06
2023-04-12T01:00:39.099Z,100985.72
2023-04-12T01:01:41.120Z,100981.31
2023-04-12T01:02:48.304Z,100982.22
2023-04-12T01:03:52.135Z,100984.88
2023-04-12T01:04:53.597Z,100984.00
2023-04-12T01:06:13.788Z,100982.97
2023-04-12T01:07:22.132Z,100987.47
2023-04-12T01:08:41.351Z,100981.25
2023-04-12T01:10:14.731Z,100975.53
2023-04-12T01:11:29.341Z,100976.50
2023-04-12T01:12:46.775Z,100974.78
2023-04-12T01:14:06.649Z,100971.22
2023-04-12T01:15:12.557Z,100965.91
2023-04-12T01:16:17.161Z,100966.66
2023-04-12T01:17:21.906Z,100966.63
2023-04-12T01:18:29.069Z,100956.72
2023-04-12T01:19:36.088Z,100956.81
2023-04-12T01:20:44.617Z,100944.09
2023-04-12T01:22:10.990Z,100959.31
2023-04-12T01:23:15.326Z,100958.47
2023-04-12T01:24:36.070Z,100954.94
2023-04-12T01:25:46.420Z,100953.09
2023-04-12T01:26:49.575Z,100943.91
2023-04-12T01:27:56.523Z,100955.53
2023-04-12T01:28:59.183Z,100951.03
2023-04-12T01:30:02.987Z,100955.47
2023-04-12T01:31:07.072Z,100954.50
2023-04-12T01:32:11.358Z,100956.25
2023-04-12T01:33:13.915Z,100960.78
2023-04-12T01:34:16.651Z,100955.41
2023-04-12T01:35:21.098Z,100955.28
2023-04-12T01:36:26.276Z,100958.81
2023-04-12T01:37:27.739Z,100953.38
2023-04-12T01:38:30.269Z,100949.78
2023-04-12T01:39:33.559Z,100948.81
2023-04-12T01:40:35.877Z,100945.09
2023-04-12T01:41:43.240Z,100952.34
2023-04-12T01:42:45.023Z,100942.53
2023-04-12T01:43:47.417Z,100944.25
2023-04-12T01:44:50.178Z,100947.78
2023-04-12T01:45:51.667Z,100944.22
2023-04-12T01:46:53.727Z,100947.78
2023-04-12T01:47:55.269Z,100955.81
2023-04-12T01:48:58.417Z,100956.72
2023-04-12T01:50:05.847Z,100953.06
2023-04-12T01:51:16.103Z,100953.00
2023-04-12T01:52:23.034Z,100952.16
2023-04-12T01:53:50.771Z,100957.44
2023-04-12T01:54:57.521Z,100959.31
2023-04-12T01:56:03.472Z,100952.09
2023-04-12T01:57:08.371Z,100952.06
2023-04-12T01:58:11.934Z,100943.06
2023-04-12T01:59:17.760Z,100950.13
2023-04-12T02:00:20.742Z,100943.97
2023-04-12T02:01:23.407Z,100942.09
2023-04-12T02:02:25.549Z,100947.53
2023-04-12T02:03:30.293Z,100951.91
2023-04-12T02:04:33.396Z,100948.38
2023-04-12T02:05:35.611Z,100949.28
2023-04-12T02:06:39.286Z,100950.13
2023-04-12T02:07:42.105Z,100943.72
2023-04-12T02:08:43.804Z,100944.66
2023-04-12T02:09:45.286Z,100943.78
2023-04-12T02:10:47.259Z,100939.28
2023-04-12T02:11:49.805Z,100935.22
2023-04-12T02:12:51.574Z,100943.06
2023-04-12T02:13:53.118Z,100932.06
2023-04-12T02:14:54.538Z,100934.03
2023-04-12T02:15:57.047Z,100925.41
2023-04-12T02:16:59.690Z,100927.13
2023-04-12T02:18:01.509Z,100925.22
2023-04-12T02:19:03.944Z,100916.22
2023-04-12T02:20:09.592Z,100922.44
2023-04-12T02:21:11.077Z,100920.66
2023-04-12T02:22:12.501Z,100916.84
2023-04-12T02:23:13.917Z,100919.69
2023-04-12T02:24:15.501Z,100921.50
2023-04-12T02:25:19.791Z,100918.69
2023-04-12T02:26:23.253Z,100915.91
2023-04-12T02:27:24.721Z,100916.00
2023-04-12T02:28:26.202Z,100921.34
2023-04-12T02:29:27.680Z,100918.56
2023-04-12T02:30:29.229Z,100917.78
2023-04-12T02:31:30.675Z,100917.66
2023-04-12T02:32:32.873Z,100921.09
2023-04-12T02:33:34.754Z,100919.28
2023-04-12T02:34:38.274Z,100907.66
2023-04-12T02:35:39.744Z,100918.34
2023-04-12T02:36:41.191Z,100913.78
2023-04-12T02:37:43.861Z,100912.09
2023-04-12T02:38:45.779Z,100916.59
2023-04-12T02:39:47.993Z,100912.03
2023-04-12T02:40:49.400Z,100904.69
2023-04-12T02:41:50.910Z,100907.41
2023-04-12T02:42:52.335Z,100910.06
2023-04-12T02:43:53.813Z,100907.31
2023-04-12T02:44:55.270Z,100902.09
2023-04-12T02:45:56.697Z,100895.91
2023-04-12T02:46:58.147Z,100889.81
2023-04-12T02:47:59.627Z,100886.25
2023-04-12T02:49:01.152Z,100882.50
2023-04-12T02:50:02.632Z,100883.41
2023-04-12T02:51:04.210Z,100888.63
2023-04-12T02:52:05.827Z,100891.38
2023-04-12T02:53:07.372Z,100887.78
2023-04-12T02:54:08.792Z,100892.22
2023-04-12T02:55:10.714Z,100887.66
2023-04-12T02:56:12.935Z,100893.78
2023-04-12T02:57:16.062Z,100888.44
2023-04-12T02:58:17.565Z,100892.75
2023-04-12T02:59:18.990Z,100896.34
2023-04-12T03:00:21.690Z,100889.91
2023-04-12T03:01:23.130Z,100888.03
2023-04-12T03:02:24.772Z,100895.19
2023-04-12T03:03:28.503Z,100876.38
2023-04-12T03:04:30.655Z,100885.63
2023-04-12T03:05:32.163Z,100887.31
2023-04-12T03:06:34.011Z,100883.59
2023-04-12T03:07:36.125Z,100875.56
2023-04-12T03:08:38.135Z,100877.38
2023-04-12T03:09:42.537Z,100880.00
2023-04-12T03:10:44.005Z,100875.44
2023-04-12T03:11:46.538Z,100878.03
2023-04-12T03:12:47.978Z,100875.28
2023-04-12T03:13:49.369Z,100852.81
2023-04-12T03:14:51.061Z,100871.34
2023-04-12T03:15:57.224Z,100860.53
2023-04-12T03:16:58.888Z,100848.72
2023-04-12T03:18:00.476Z,100859.56
2023-04-12T03:19:01.976Z,100861.31
2023-04-12T03:20:09.782Z,100860.47
2023-04-12T03:21:12.027Z,100859.63
2023-04-12T03:22:13.328Z,100861.50
2023-04-12T03:23:14.836Z,100861.41
2023-04-12T03:24:16.922Z,100855.00
2023-04-12T03:25:18.647Z,100851.34
2023-04-12T03:26:20.666Z,100858.47
2023-04-12T03:27:22.095Z,100849.50
2023-04-12T03:28:23.514Z,100855.75
2023-04-12T03:29:24.949Z,100849.34
2023-04-12T03:30:26.403Z,100850.28
2023-04-12T03:31:28.109Z,100846.47
2023-04-12T03:32:29.596Z,100849.22
2023-04-12T03:33:31.110Z,100848.44
2023-04-12T03:34:32.679Z,100846.69
2023-04-12T03:35:34.159Z,100844.78
2023-04-12T03:36:35.659Z,100832.38
2023-04-12T03:37:37.363Z,100839.78
2023-04-12T03:38:38.810Z,100842.59
2023-04-12T03:39:40.213Z,100824.78
2023-04-12T03:40:41.785Z,100824.19
2023-04-12T03:41:43.263Z,100830.56
2023-04-12T03:42:44.656Z,100829.47
2023-04-12T03:43:46.060Z,100820.47
2023-04-12T03:44:48.593Z,100810.34
2023-04-12T03:45:50.746Z,100810.53
2023-04-12T03:46:52.429Z,100816.53
2023-04-12T03:47:54.029Z,100821.91
2023-04-12T03:48:55.775Z,100811.03
2023-04-12T03:51:12.300Z,100817.13
2023-04-12T03:52:13.808Z,100814.44
2023-04-12T03:53:15.252Z,100809.94
2023-04-12T03:54:16.812Z,100821.41
2023-04-12T03:55:18.497Z,100804.31
2023-04-12T03:56:20.841Z,100804.38
2023-04-12T03:57:22.269Z,100811.47
2023-04-12T03:58:23.686Z,100811.41
2023-04-12T03:59:25.150Z,100814.09
2023-04-12T04:00:26.695Z,100809.59
2023-04-12T04:01:31.439Z,100814.16
2023-04-12T04:02:33.464Z,100808.81
2023-04-12T04:03:35.244Z,100805.34
2023-04-12T04:04:38.059Z,100803.41
2023-04-12T04:05:39.629Z,100803.25
2023-04-12T04:06:41.243Z,100798.81
2023-04-12T04:07:42.740Z,100800.59
2023-04-12T04:08:44.986Z,100799.59
2023-04-12T04:09:50.030Z,100794.53
2023-04-12T04:10:51.579Z,100796.41
2023-04-12T04:11:52.982Z,100792.06
2023-04-12T04:12:54.799Z,100796.41
2023-04-12T04:13:56.548Z,100798.31
2023-04-12T04:14:58.248Z,100791.97
2023-04-12T04:16:05.736Z,100800.09
2023-04-12T04:17:07.275Z,100809.09
2023-04-12T04:18:08.781Z,100793.94
2023-04-12T04:19:10.823Z,100809.94
2023-04-12T04:20:13.574Z,100802.75
2023-04-12T04:21:15.100Z,100804.47
2023-04-12T04:22:17.770Z,100809.72
2023-04-12T04:23:19.195Z,100810.59
2023-04-12T04:24:22.245Z,100801.56
2023-04-12T04:25:29.972Z,100804.38
2023-04-12T04:26:34.146Z,100805.03
2023-04-12T04:27:38.435Z,100806.19
2023-04-12T04:28:50.177Z,100797.97
2023-04-12T04:29:52.374Z,100805.28
2023-04-12T04:30:55.725Z,100801.75
2023-04-12T04:31:57.888Z,100801.84
2023-04-12T04:32:59.409Z,100802.84
2023-04-12T04:34:03.319Z,100800.97
2023-04-12T04:35:05.663Z,100791.22
2023-04-12T04:36:07.925Z,100795.00
2023-04-12T04:37:09.650Z,100799.44
2023-04-12T04:38:11.102Z,100796.81
2023-04-12T04:39:12.511Z,100803.03
2023-04-12T04:40:14.965Z,100798.50
2023-04-12T04:41:17.449Z,100794.00
2023-04-12T04:42:18.935Z,100798.53
2023-04-12T04:43:20.549Z,100794.91
2023-04-12T04:44:22.214Z,100793.94
2023-04-12T04:45:27.841Z,100794.91
2023-04-12T04:46:30.949Z,100793.09
2023-04-12T04:47:32.425Z,100791.28
2023-04-12T04:48:34.002Z,100784.09
2023-04-12T04:49:38.514Z,100792.25
2023-04-12T04:50:39.955Z,100795.00
2023-04-12T04:51:41.373Z,100787.88
2023-04-12T04:52:42.766Z,100795.97
2023-04-12T04:53:44.524Z,100796.88
2023-04-12T04:54:46.904Z,100789.72
2023-04-12T04:55:48.531Z,100796.13
2023-04-12T04:56:50.139Z,100795.13
2023-04-12T04:57:51.886Z,100787.09
2023-04-12T04:58:55.443Z,100784.50
2023-04-12T04:59:58.402Z,100788.22
2023-04-12T05:00:59.899Z,100782.84
2023-04-12T05:02:01.419Z,100784.66
2023-04-12T05:03:03.317Z,100783.00
2023-04-12T05:04:05.049Z,100772.59
2023-04-12T05:05:07.596Z,100770.03
2023-04-12T05:06:09.075Z,100766.63
2023-04-12T05:07:10.842Z,100770.22
2023-04-12T05:08:12.255Z,100771.19
2023-04-12T05:09:13.677Z,100780.19
2023-04-12T05:10:15.263Z,100771.41
2023-04-12T05:11:16.739Z,100775.03
2023-04-12T05:12:18.144Z,100764.31
2023-04-12T05:13:19.836Z,100762.84
2023-04-12T05:14:23.218Z,100769.16
2023-04-12T05:15:24.843Z,100773.84
2023-04-12T05:16:26.256Z,100771.31
2023-04-12T05:17:28.393Z,100766.94
2023-04-12T05:18:29.942Z,100772.41
2023-04-12T05:19:31.379Z,100765.44
2023-04-12T05:20:32.847Z,100767.56
2023-04-12T05:21:34.391Z,100766.97
2023-04-12T05:22:35.993Z,100765.28
2023-04-12T05:23:42.669Z,100761.03
2023-04-12T05:24:44.153Z,100763.09
2023-04-12T05:25:48.025Z,100754.44
2023-04-12T05:26:49.518Z,100746.63
2023-04-12T05:27:52.209Z,100756.78
2023-04-12T05:28:53.869Z,100752.72
2023-04-12T05:29:57.262Z,100744.94
2023-04-12T05:30:58.842Z,100747.03
2023-04-12T05:32:00.397Z,100739.09
2023-04-12T05:33:01.845Z,100734.78
2023-04-12T05:34:03.414Z,100736.75
2023-04-12T05:35:05.432Z,100729.84
2023-04-12T05:36:07.296Z,100738.91
2023-04-12T05:37:08.808Z,100724.75
2023-04-12T05:38:10.412Z,100732.91
2023-04-12T05:39:11.857Z,100731.16
2023-04-12T05:40:13.462Z,100720.50
2023-04-12T05:41:14.875Z,100721.38
2023-04-12T05:42:16.528Z,100716.78
2023-04-12T05:43:18.184Z,100718.69
2023-04-12T05:44:19.779Z,100714.19
2023-04-12T05:45:21.332Z,100712.38
2023-04-12T05:46:22.938Z,100706.03
2023-04-12T05:47:24.389Z,100714.06
2023-04-12T05:48:25.807Z,100720.34
2023-04-12T05:49:33.717Z,100718.53
2023-04-12T05:50:35.347Z,100712.34
2023-04-12T05:51:41.221Z,100712.34
2023-04-12T05:52:43.197Z,100711.59
2023-04-12T05:53:44.583Z,100697.28
2023-04-12T05:54:46.042Z,100696.44
2023-04-12T05:55:47.522Z,100691.97
2023-04-12T05:56:48.987Z,100694.72
2023-04-12T05:57:51.453Z,100696.63
2023-04-12T05:58:52.969Z,100698.50
2023-04-12T05:59:54.817Z,100697.66
2023-04-12T06:00:56.363Z,100692.31
2023-04-12T06:01:57.850Z,100691.44
2023-04-12T06:02:59.561Z,100688.72
2023-04-12T06:04:06.130Z,100685.13
2023-04-12T06:05:08.560Z,100683.38
2023-04-12T06:06:10.194Z,100675.28
2023-04-12T06:07:11.769Z,100670.78
2023-04-12T06:08:14.762Z,100661.81
2023-04-12T06:09:16.306Z,100666.31
2023-04-12T06:10:18.257Z,100659.09
2023-04-12T06:11:19.717Z,100662.69
2023-04-12T06:12:21.950Z,100660.91
2023-04-12T06:13:23.399Z,100655.50
2023-04-12T06:14:24.780Z,100648.28
2023-04-12T06:15:26.474Z,100652.78
2023-04-12T06:16:28.287Z,100649.16
2023-04-12T06:17:29.805Z,100652.72
2023-04-12T06:18:31.355Z,100636.47
2023-04-12T06:19:32.779Z,100647.31
2023-04-12T06:20:34.240Z,100648.19
2023-04-12T06:21:35.688Z,100641.75
2023-04-12T06:22:37.503Z,100631.78
2023-04-12T06:23:38.941Z,100631.69
2023-04-12T06:24:40.406Z,100627.16
2023-04-12T06:25:41.822Z,100631.63
2023-04-12T06:26:46.758Z,100629.75
2023-04-12T06:27:48.267Z,100627.81
2023-04-12T06:28:50.038Z,100616.94
2023-04-12T06:29:52.004Z,100624.06
2023-04-12T06:30:53.998Z,100624.06
2023-04-12T06:31:55.666Z,100622.91
2023-04-12T06:32:57.204Z,100621.94
2023-04-12T06:33:58.694Z,100621.88
2023-04-12T06:35:00.154Z,100617.28
2023-04-12T06:36:01.719Z,100619.91
2023-04-12T06:37:03.176Z,100612.66
2023-04-12T06:38:04.626Z,100617.16
2023-04-12T06:39:06.689Z,100613.56
2023-04-12T06:40:08.493Z,100611.50
2023-04-12T06:41:09.969Z,100608.84
2023-04-12T06:42:14.029Z,100612.19
2023-04-12T06:43:20.212Z,100610.28
2023-04-12T06:44:21.623Z,100599.38
2023-04-12T06:45:23.083Z,100602.00
2023-04-12T06:46:28.217Z,100602.81
2023-04-12T06:47:30.682Z,100601.53
2023-04-12T06:48:32.142Z,100594.94
2023-04-12T06:49:33.745Z,100591.75
2023-04-12T06:50:35.602Z,100596.41
2023-04-12T06:51:37.068Z,100591.78
2023-04-12T06:52:38.585Z,100593.50
2023-04-12T06:53:40.230Z,100587.06
2023-04-12T06:54:42.332Z,100589.97
2023-04-12T06:55:43.734Z,100585.63
2023-04-12T06:56:45.325Z,100584.56
2023-04-12T06:57:46.794Z,100582.59
2023-04-12T06:58:48.252Z,100586.34
2023-04-12T06:59:49.792Z,100585.28
2023-04-12T07:00:51.276Z,100581.56
2023-04-12T07:01:52.876Z,100582.50
2023-04-12T07:02:54.457Z,100569.75
2023-04-12T07:03:56.353Z,100579.91
2023-04-12T07:04:57.872Z,100573.47
2023-04-12T07:06:07.760Z,100577.09
2023-04-12T07:07:12.198Z,100571.66
2023-04-12T07:08:13.644Z,100573.56
2023-04-12T07:09:15.688Z,100569.84
2023-04-12T07:10:17.043Z,100568.13
2023-04-12T07:11:21.766Z,100575.50
2023-04-12T07:12:23.606Z,100567.25
2023-04-12T07:13:25.151Z,100570.81
2023-04-12T07:14:27.100Z,100562.75
2023-04-12T07:15:28.459Z,100570.69
2023-04-12T07:16:31.571Z,100560.84
2023-04-12T07:17:33.118Z,100558.81
2023-04-12T07:18:34.702Z,100566.91
2023-04-12T07:19:36.935Z,100554.94
2023-04-12T07:20:38.381Z,100556.34
2023-04-12T07:21:39.828Z,100553.53
2023-04-12T07:22:41.260Z,100549.94
2023-04-12T07:23:42.842Z,100551.75
2023-04-12T07:24:44.493Z,100550.88
2023-04-12T07:25:46.306Z,100555.44
2023-04-12T07:26:47.774Z,100544.84
2023-04-12T07:27:51.580Z,100550.06
2023-04-12T07:28:53.264Z,100551.75
2023-04-12T07:29:54.653Z,100548.28
2023-04-12T07:30:56.208Z,100541.94
2023-04-12T07:31:59.768Z,100543.97
2023-04-12T07:33:18.510Z,100540.44
2023-04-12T07:34:21.215Z,100539.56
2023-04-12T07:35:23.068Z,100539.38
2023-04-12T07:36:24.562Z,100538.41
2023-04-12T07:37:26.031Z,100537.47
2023-04-12T07:38:27.569Z,100532.88
2023-04-12T07:39:31.861Z,100530.84
2023-04-12T07:40:33.473Z,100531.94
2023-04-12T07:41:34.864Z,100528.34
2023-04-12T07:42:36.280Z,100523.78
2023-04-12T07:43:37.700Z,100517.53
2023-04-12T07:44:39.246Z,100525.50
2023-04-12T07:45:40.665Z,100522.63
2023-04-12T07:46:42.127Z,100520.66
2023-04-12T07:47:43.599Z,100518.78
2023-04-12T07:48:45.067Z,100515.56
2023-04-12T07:49:46.478Z,100519.16
2023-04-12T07:50:47.930Z,100514.00
2023-04-12T07:51:49.394Z,100503.91
2023-04-12T07:52:51.025Z,100506.50
2023-04-12T07:53:52.503Z,100503.59
2023-04-12T07:54:55.027Z,100499.56
2023-04-12T07:55:56.589Z,100496.16
2023-04-12T07:57:04.896Z,100490.63
2023-04-12T07:58:06.326Z,100485.09
2023-04-12T07:59:07.844Z,100494.41
2023-04-12T08:00:09.764Z,100495.50
2023-04-12T08:01:13.198Z,100487.22
2023-04-12T08:02:14.696Z,100498.69
2023-04-12T08:03:17.244Z,100486.34
2023-04-12T08:04:18.837Z,100486.75
2023-04-12T08:05:20.572Z,100483.25
2023-04-12T08:06:22.094Z,100484.44
2023-04-12T08:07:23.930Z,100480.53
2023-04-12T08:08:25.806Z,100484.13
2023-04-12T08:09:27.482Z,100486.59
2023-04-12T08:10:29.524Z,100482.84
2023-04-12T08:11:30.929Z,100477.47
2023-04-12T08:12:32.349Z,100481.22
2023-04-12T08:13:34.367Z,100479.50
2023-04-12T08:14:36.021Z,100472.84
2023-04-12T08:15:37.574Z,100470.63
2023-04-12T08:16:39.144Z,100476.16
2023-04-12T08:17:43.687Z,100462.50
2023-04-12T08:18:45.376Z,100473.13
2023-04-12T08:19:47.332Z,100462.13
2023-04-12T08:20:49.205Z,100459.13
2023-04-12T08:21:50.804Z,100463.53
2023-04-12T08:22:52.693Z,100462.75
2023-04-12T08:23:54.216Z,100460.09
2023-04-12T08:24:55.734Z,100458.13
2023-04-12T08:26:03.169Z,100457.09
2023-04-12T08:27:04.736Z,100455.03
2023-04-12T08:28:09.154Z,100451.44
2023-04-12T08:29:10.691Z,100459.00
2023-04-12T08:30:13.141Z,100444.84
2023-04-12T08:31:15.533Z,100452.84
2023-04-12T08:32:17.228Z,100446.38
2023-04-12T08:33:18.682Z,100449.06
2023-04-12T08:34:22.278Z,100446.38
2023-04-12T08:35:23.984Z,100440.91
2023-04-12T08:36:27.240Z,100439.81
2023-04-12T08:37:28.679Z,100434.34
2023-04-12T08:38:44.244Z,100436.84
2023-04-12T08:39:47.319Z,100424.81
2023-04-12T08:40:49.765Z,100431.00
2023-04-12T08:41:51.899Z,100427.16
2023-04-12T08:42:53.975Z,100427.44
2023-04-12T08:43:56.105Z,100419.66
2023-04-12T08:44:58.316Z,100422.34
2023-04-12T08:46:00.644Z,100426.44
2023-04-12T08:47:07.021Z,100423.47
2023-04-12T08:48:09.053Z,100417.19
2023-04-12T08:49:11.381Z,100417.75
2023-04-12T08:50:14.105Z,100416.00
2023-04-12T08:51:19.247Z,100411.25
2023-04-12T08:52:20.682Z,100414.44
2023-04-12T08:53:22.373Z,100413.47
2023-04-12T08:54:24.976Z,100404.59
2023-04-12T08:55:26.467Z,100409.53
2023-04-12T08:56:29.783Z,100407.31
2023-04-12T08:57:32.661Z,100413.00
2023-04-12T08:58:34.170Z,100403.66
2023-04-12T08:59:42.252Z,100416.16
2023-04-12T09:00:46.172Z,100407.94
2023-04-12T09:01:48.273Z,100413.91
2023-04-12T09:02:50.427Z,100402.88
2023-04-12T09:03:52.197Z,100404.53
2023-04-12T09:04:54.158Z,100404.78
2023-04-12T09:05:56.116Z,100397.31
2023-04-12T09:06:57.634Z,100400.63
2023-04-12T09:07:59.593Z,100389.19
2023-04-12T09:09:01.472Z,100387.69
2023-04-12T09:10:04.623Z,100371.31
2023-04-12T09:11:22.646Z,100390.50
2023-04-12T09:12:24.386Z,100383.19
2023-04-12T09:13:34.517Z,100383.03
2023-04-12T09:14:36.132Z,100372.91
2023-04-12T09:15:51.200Z,100370.13
2023-04-12T09:16:52.724Z,100357.22
2023-04-12T09:18:08.647Z,100369.78
2023-04-12T09:19:10.227Z,100365.91
2023-04-12T09:20:17.806Z,100363.06
2023-04-12T09:21:19.379Z,100363.22
2023-04-12T09:22:36.170Z,100367.34
2023-04-12T09:23:37.710Z,100361.50
2023-04-12T09:24:47.445Z,100359.41
2023-04-12T09:25:51.646Z,100358.81
2023-04-12T09:27:06.474Z,100360.50
2023-04-12T09:28:25.977Z,100354.88
2023-04-12T09:29:27.582Z,100350.22
2023-04-12T09:30:29.119Z,100342.09
2023-04-12T09:31:31.367Z,100347.03
2023-04-12T09:32:32.972Z,100337.00
2023-04-12T09:33:36.610Z,100342.50
2023-04-12T09:34:38.838Z,100334.53
2023-04-12T09:35:40.850Z,100342.56
2023-04-12T09:36:42.780Z,100334.34
2023-04-12T09:37:44.214Z,100336.38
2023-04-12T09:39:00.874Z,100327.25
2023-04-12T09:40:05.916Z,100323.00
2023-04-12T09:41:27.209Z,100324.47
2023-04-12T09:42:33.991Z,100326.81
2023-04-12T09:43:37.482Z,100318.78
2023-04-12T09:44:39.829Z,100314.59
2023-04-12T09:45:41.300Z,100303.41
2023-04-12T09:46:54.786Z,100293.06
2023-04-12T09:47:56.730Z,100306.09
2023-04-12T09:48:59.550Z,100304.69
2023-04-12T09:50:01.210Z,100294.63
2023-04-12T09:51:02.898Z,100300.75
2023-04-12T09:52:05.579Z,100291.31
2023-04-12T09:53:18.785Z,100281.84
2023-04-12T09:54:20.886Z,100280.75
2023-04-12T09:55:24.071Z,100286.34
2023-04-12T09:56:29.633Z,100284.69
2023-04-12T09:57:31.317Z,100277.25
2023-04-12T09:58:36.248Z,100276.19
2023-04-12T09:59:41.914Z,100278.84
2023-04-12T10:00:44.458Z,100272.56
2023-04-12T10:01:47.009Z,100244.25
2023-04-12T10:02:53.216Z,100264.66
2023-04-12T10:03:55.641Z,100268.50
2023-04-12T10:04:58.095Z,100267.88
2023-04-12T10:06:00.030Z,100254.84
2023-04-12T10:07:01.693Z,100265.56
2023-04-12T10:08:05.598Z,100256.16
2023-04-12T10:09:08.591Z,100256.16
2023-04-12T10:10:12.609Z,100253.03
2023-04-12T10:11:14.506Z,100244.88
2023-04-12T10:12:16.298Z,100248.13
2023-04-12T10:13:18.375Z,100247.63
2023-04-12T10:14:22.124Z,100243.47
2023-04-12T10:15:25.438Z,100242.47
2023-04-12T10:16:27.570Z,100235.72
2023-04-12T10:17:29.229Z,100231.75
2023-04-12T10:18:31.476Z,100226.47
2023-04-12T10:19:35.687Z,100238.16
2023-04-12T10:20:40.630Z,100225.81
2023-04-12T10:21:42.577Z,100223.00
2023-04-12T10:22:51.025Z,100220.00
2023-04-12T10:23:52.849Z,100223.34
2023-04-12T10:24:54.886Z,100222.59
2023-04-12T10:25:57.100Z,100219.28
2023-04-12T10:27:03.032Z,100214.34
2023-04-12T10:28:15.801Z,100201.88
2023-04-12T10:29:30.486Z,100205.25
2023-04-12T10:30:32.206Z,100199.53
2023-04-12T10:31:34.105Z,100193.94
2023-04-12T10:32:36.349Z,100197.50
2023-04-12T10:33:38.234Z,100201.06
2023-04-12T10:34:42.385Z,100189.25
2023-04-12T10:35:51.645Z,100196.56
2023-04-12T10:36:54.004Z,100187.81
2023-04-12T10:38:04.228Z,100181.91
2023-04-12T10:39:10.978Z,100188.28
2023-04-12T10:40:19.358Z,100186.56
2023-04-12T10:41:21.684Z,100185.88
2023-04-12T10:42:31.215Z,100187.63
2023-04-12T10:43:32.816Z,100185.81
2023-04-12T10:44:34.322Z,100171.84
2023-04-12T10:45:36.683Z,100172.50
2023-04-12T10:46:38.240Z,100166.94
2023-04-12T10:47:58.344Z,100179.06
2023-04-12T10:49:09.488Z,100160.19
2023-04-12T10:50:25.007Z,100160.31
2023-04-12T10:51:29.101Z,100173.53
2023-04-12T10:52:30.743Z,100167.78
2023-04-12T10:53:32.183Z,100162.59
2023-04-12T10:54:35.578Z,100158.53
2023-04-12T10:55:38.320Z,100163.06
2023-04-12T10:56:47.162Z,100149.13
2023-04-12T10:57:49.534Z,100152.69
2023-04-12T10:58:51.108Z,100149.00
2023-04-12T10:59:57.295Z,100149.91
2023-04-12T11:00:58.969Z,100144.94
2023-04-12T11:02:11.879Z,100134.28
2023-04-12T11:03:14.126Z,100142.03
2023-04-12T11:04:20.973Z,100139.59
2023-04-12T11:05:22.846Z,100147.19
2023-04-12T11:06:50.369Z,100142.06
2023-04-12T11:07:53.665Z,100139.53
2023-04-12T11:08:56.376Z,100138.47
2023-04-12T11:09:58.105Z,100137.91
2023-04-12T11:11:02.234Z,100134.09
2023-04-12T11:12:03.594Z,100137.97
2023-04-12T11:13:09.259Z,100134.63
2023-04-12T11:14:11.228Z,100129.53
2023-04-12T11:15:13.772Z,100120.31
2023-04-12T11:16:15.317Z,100108.47
2023-04-12T11:17:16.939Z,100112.94
2023-04-12T11:18:18.674Z,100104.81
2023-04-12T11:19:20.403Z,100102.81
2023-04-12T11:20:21.865Z,100095.25
2023-04-12T11:21:24.468Z,100089.22
2023-04-12T11:22:31.886Z,100103.88
2023-04-12T11:23:33.378Z,100104.44
2023-04-12T11:24:39.342Z,100100.06
2023-04-12T11:25:40.932Z,100099.72
2023-04-12T11:26:42.866Z,100103.47
2023-04-12T11:27:54.681Z,100109.00
2023-04-12T11:28:56.554Z,100099.81
2023-04-12T11:29:59.885Z,100102.94
2023-04-12T11:31:01.373Z,100100.88
2023-04-12T11:32:03.708Z,100104.81
2023-04-12T11:33:05.278Z,100088.59
2023-04-12T11:34:06.776Z,100088.69
2023-04-12T11:35:08.739Z,100095.44
2023-04-12T11:36:14.537Z,100096.19
2023-04-12T11:37:19.030Z,100093.34
2023-04-12T11:38:21.186Z,100084.88
2023-04-12T11:39:22.754Z,100091.09
2023-04-12T11:40:24.298Z,100077.72
2023-04-12T11:41:25.870Z,100070.16
2023-04-12T11:42:29.186Z,100077.31
2023-04-12T11:43:30.910Z,100073.84
2023-04-12T11:44:44.189Z,100085.91
2023-04-12T11:45:59.110Z,100068.34
2023-04-12T11:47:01.344Z,100071.69
2023-04-12T11:48:02.898Z,100066.53
2023-04-12T11:49:04.444Z,100066.31
2023-04-12T11:50:06.600Z,100069.03
2023-04-12T11:51:21.623Z,100058.28
2023-04-12T11:52:31.923Z,100056.22
2023-04-12T11:53:33.518Z,100058.88
2023-04-12T11:54:35.164Z,100054.06
2023-04-12T11:55:36.648Z,100054.34
2023-04-12T11:56:38.659Z,100041.91
2023-04-12T11:57:40.191Z,100053.09
2023-04-12T11:58:41.626Z,100023.75
2023-04-12T11:59:45.673Z,100038.50
2023-04-12T12:00:47.172Z,100042.16
2023-04-12T12:01:51.907Z,100042.16
2023-04-12T12:03:06.727Z,100041.06